createdAt,value
2017-11-14T00:01:18.403Z,3.58
2017-11-14T00:02:18.318Z,3.62
2017-11-14T00:04:12.680Z,3.50
2017-11-14T00:05:12.667Z,3.58
2017-11-14T00:07:07.122Z,3.63
2017-11-14T00:08:07.017Z,3.51
2017-11-14T00:10:01.380Z,3.59
2017-11-14T00:11:01.394Z,3.60
2017-11-14T00:12:55.837Z,3.58
2017-11-14T00:13:55.705Z,3.55
2017-11-14T00:15:50.068Z,3.53
2017-11-14T00:16:50.054Z,3.62
2017-11-14T00:18:44.455Z,3.58
2017-11-14T00:19:44.395Z,3.70
2017-11-14T00:21:38.751Z,3.69
2017-11-14T00:22:38.743Z,3.78
2017-11-14T00:24:33.208Z,3.73
2017-11-14T00:25:33.092Z,3.77
2017-11-14T00:27:27.445Z,3.83
2017-11-14T00:28:27.431Z,3.83
2017-11-14T00:30:21.848Z,3.68
2017-11-14T00:31:21.789Z,3.68
2017-11-14T00:33:16.151Z,3.83
2017-11-14T00:34:16.130Z,3.83
2017-11-14T00:36:10.558Z,3.81
2017-11-14T00:37:10.490Z,3.92
2017-11-14T00:39:04.932Z,3.86
2017-11-14T00:40:04.847Z,3.81
2017-11-14T00:41:59.312Z,3.83
2017-11-14T00:42:59.196Z,3.84
2017-11-14T00:44:53.553Z,3.84
2017-11-14T00:45:53.539Z,3.83
2017-11-14T00:47:48.788Z,3.73
2017-11-14T00:48:48.739Z,3.76
2017-11-14T00:50:43.103Z,3.73
2017-11-14T00:51:43.093Z,3.73
2017-11-14T00:53:37.501Z,3.73
2017-11-14T00:54:37.445Z,3.91
2017-11-14T00:56:32.300Z,3.74
2017-11-14T00:57:31.795Z,3.80
2017-11-14T00:59:26.258Z,3.77
2017-11-14T01:00:26.144Z,3.73
2017-11-14T01:02:20.567Z,3.69
2017-11-14T01:03:21.003Z,3.63
2017-11-14T01:05:14.967Z,3.74
2017-11-14T01:06:14.843Z,3.69
2017-11-14T01:08:09.200Z,3.63
2017-11-14T01:09:09.188Z,3.62
2017-11-14T01:11:03.693Z,3.62
2017-11-14T01:12:03.539Z,3.62
2017-11-14T01:13:57.899Z,3.66
2017-11-14T01:14:57.891Z,3.68
2017-11-14T01:16:52.350Z,3.69
2017-11-14T01:17:53.256Z,3.74
2017-11-14T01:19:46.598Z,3.73
2017-11-14T01:20:47.100Z,3.65
2017-11-14T01:22:40.995Z,3.73
2017-11-14T01:23:40.936Z,3.73
2017-11-14T01:25:35.305Z,3.84
2017-11-14T01:26:35.293Z,3.74
2017-11-14T01:28:30.444Z,3.77
2017-11-14T01:29:29.650Z,3.70
2017-11-14T01:31:24.099Z,3.81
2017-11-14T01:32:23.994Z,3.86
2017-11-14T01:34:18.355Z,3.86
2017-11-14T01:35:18.342Z,3.88
2017-11-14T01:37:12.798Z,3.94
2017-11-14T01:38:12.683Z,3.94
2017-11-14T01:40:07.047Z,3.87
2017-11-14T01:41:07.034Z,3.94
2017-11-14T01:43:01.819Z,3.99
2017-11-14T01:44:01.387Z,4.01
2017-11-14T01:45:56.755Z,3.98
2017-11-14T01:46:55.727Z,4.05
2017-11-14T01:48:50.133Z,4.06
2017-11-14T01:49:50.076Z,4.02
2017-11-14T01:51:44.481Z,4.13
2017-11-14T01:52:44.425Z,4.10
2017-11-14T01:54:38.901Z,4.19
2017-11-14T01:55:38.769Z,4.13
2017-11-14T01:57:33.209Z,4.14
2017-11-14T01:58:33.130Z,4.10
2017-11-14T02:00:27.773Z,4.13
2017-11-14T02:01:27.488Z,4.06
2017-11-14T02:03:21.850Z,4.17
2017-11-14T02:04:21.836Z,4.06
2017-11-14T02:06:16.243Z,3.99
2017-11-14T02:07:16.189Z,4.10
2017-11-14T02:09:10.596Z,4.05
2017-11-14T02:10:10.639Z,3.98
2017-11-14T02:12:09.880Z,4.01
2017-11-14T02:13:09.780Z,3.94
2017-11-14T02:14:09.771Z,4.01
2017-11-14T02:15:09.764Z,3.96
2017-11-14T02:16:09.754Z,4.01
2017-11-14T02:17:09.745Z,3.98
2017-11-14T02:18:09.738Z,3.96
2017-11-14T02:19:09.729Z,4.01
2017-11-14T02:20:09.731Z,4.05
2017-11-14T02:21:09.714Z,3.99
2017-11-14T02:22:09.706Z,3.99
2017-11-14T02:23:11.463Z,3.98
2017-11-14T02:24:09.687Z,4.02
2017-11-14T02:25:09.683Z,3.99
2017-11-14T02:26:09.673Z,4.04
2017-11-14T02:27:09.664Z,4.02
2017-11-14T02:28:09.657Z,3.99
2017-11-14T02:29:09.648Z,4.04
2017-11-14T02:30:10.398Z,4.02
2017-11-14T02:31:09.633Z,4.06
2017-11-14T02:32:09.624Z,4.06
2017-11-14T02:33:09.676Z,4.02
2017-11-14T02:34:09.606Z,4.05
2017-11-14T02:35:09.606Z,4.02
2017-11-14T02:36:09.590Z,3.96
2017-11-14T02:37:09.583Z,4.06
2017-11-14T02:38:09.574Z,4.01
2017-11-14T02:39:09.592Z,3.96
2017-11-14T02:40:09.557Z,3.96
2017-11-14T02:41:09.551Z,3.96
2017-11-14T02:42:09.541Z,3.96
2017-11-14T02:43:09.536Z,4.02
2017-11-14T02:44:09.529Z,4.10
2017-11-14T02:45:09.516Z,4.10
2017-11-14T02:46:09.515Z,4.06
2017-11-14T02:47:09.500Z,4.08
2017-11-14T02:48:09.493Z,4.04
2017-11-14T02:49:09.490Z,4.01
2017-11-14T02:50:09.477Z,4.02
2017-11-14T02:51:09.469Z,4.08
2017-11-14T02:52:09.458Z,4.04
2017-11-14T02:53:09.460Z,4.14
2017-11-14T02:54:09.442Z,4.13
2017-11-14T02:55:09.435Z,4.10
2017-11-14T02:56:09.426Z,4.13
2017-11-14T02:57:09.421Z,4.16
2017-11-14T02:58:09.412Z,4.20
2017-11-14T02:59:09.407Z,4.17
2017-11-14T03:00:09.399Z,4.14
2017-11-14T03:01:09.390Z,4.28
2017-11-14T03:02:09.378Z,4.26
2017-11-14T03:03:09.370Z,4.23
2017-11-14T03:04:10.057Z,4.30
2017-11-14T03:05:09.354Z,4.23
2017-11-14T03:06:09.346Z,4.35
2017-11-14T03:07:09.450Z,4.24
2017-11-14T03:08:09.329Z,4.31
2017-11-14T03:09:09.322Z,4.31
2017-11-14T03:10:09.313Z,4.31
2017-11-14T03:11:09.305Z,4.28
2017-11-14T03:12:09.300Z,4.32
2017-11-14T03:13:09.290Z,4.23
2017-11-14T03:14:09.281Z,4.24
2017-11-14T03:15:09.293Z,4.32
2017-11-14T03:16:09.265Z,4.22
2017-11-14T03:17:09.258Z,4.23
2017-11-14T03:18:09.249Z,4.26
2017-11-14T03:19:09.243Z,4.30
2017-11-14T03:20:09.233Z,4.19
2017-11-14T03:21:09.231Z,4.24
2017-11-14T03:22:09.216Z,4.20
2017-11-14T03:23:09.209Z,4.16
2017-11-14T03:24:09.201Z,4.17
2017-11-14T03:25:09.193Z,4.19
2017-11-14T03:26:09.194Z,4.17
2017-11-14T03:27:09.176Z,4.10
2017-11-14T03:28:09.167Z,4.04
2017-11-14T03:29:09.161Z,4.10
2017-11-14T03:30:09.153Z,4.01
2017-11-14T03:31:09.151Z,3.99
2017-11-14T03:32:09.137Z,4.04
2017-11-14T03:33:09.126Z,4.04
2017-11-14T03:34:09.118Z,4.01
2017-11-14T03:35:09.114Z,4.02
2017-11-14T03:36:09.100Z,3.94
2017-11-14T03:37:09.096Z,3.95
2017-11-14T03:38:10.963Z,3.87
2017-11-14T03:39:09.078Z,3.92
2017-11-14T03:40:09.068Z,3.96
2017-11-14T03:41:09.061Z,3.83
2017-11-14T03:42:09.052Z,3.92
2017-11-14T03:43:09.044Z,3.87
2017-11-14T03:44:09.903Z,3.83
2017-11-14T03:45:09.028Z,3.86
2017-11-14T03:46:09.022Z,3.87
2017-11-14T03:47:09.012Z,3.87
2017-11-14T03:48:09.000Z,3.87
2017-11-14T03:49:09.005Z,3.87
2017-11-14T03:50:08.985Z,3.91
2017-11-14T03:51:08.978Z,3.88
2017-11-14T03:52:08.969Z,3.91
2017-11-14T03:53:08.961Z,3.80
2017-11-14T03:54:08.952Z,3.83
2017-11-14T03:55:08.942Z,3.86
2017-11-14T03:56:08.936Z,3.83
2017-11-14T03:57:08.928Z,3.83
2017-11-14T03:58:10.462Z,3.83
2017-11-14T03:59:08.909Z,3.80
2017-11-14T04:00:08.900Z,3.83
2017-11-14T04:01:08.890Z,3.87
2017-11-14T04:02:08.884Z,3.88
2017-11-14T04:03:08.875Z,3.87
2017-11-14T04:04:08.876Z,3.91
2017-11-14T04:05:08.858Z,3.84
2017-11-14T04:06:08.852Z,3.87
2017-11-14T04:07:08.842Z,3.86
2017-11-14T04:08:08.832Z,3.87
2017-11-14T04:09:08.827Z,3.94
2017-11-14T04:10:08.961Z,3.87
2017-11-14T04:11:08.807Z,3.98
2017-11-14T04:12:08.799Z,3.98
2017-11-14T04:13:08.790Z,3.98
2017-11-14T04:14:08.782Z,3.99
2017-11-14T04:15:08.773Z,4.02
2017-11-14T04:16:08.765Z,3.99
2017-11-14T04:17:08.757Z,4.01
2017-11-14T04:18:37.400Z,3.92
2017-11-14T04:19:08.753Z,3.92
2017-11-14T04:20:08.732Z,3.91
2017-11-14T04:21:08.723Z,3.88
2017-11-14T04:22:08.724Z,3.88
2017-11-14T04:23:08.710Z,3.96
2017-11-14T04:24:08.698Z,3.96
2017-11-14T04:25:08.706Z,3.98
2017-11-14T04:26:08.682Z,4.01
2017-11-14T04:27:08.674Z,4.05
2017-11-14T04:28:08.662Z,4.04
2017-11-14T04:29:08.656Z,4.01
2017-11-14T04:30:08.658Z,3.98
2017-11-14T04:31:08.639Z,4.05
2017-11-14T04:32:08.694Z,4.05
2017-11-14T04:33:08.626Z,4.05
2017-11-14T04:34:08.615Z,4.01
2017-11-14T04:35:08.607Z,4.04
2017-11-14T04:36:09.217Z,3.99
2017-11-14T04:37:08.589Z,4.02
2017-11-14T04:38:08.582Z,3.99
2017-11-14T04:39:08.574Z,4.08
2017-11-14T04:40:08.567Z,4.08
2017-11-14T04:41:08.556Z,4.10
2017-11-14T04:42:08.549Z,4.12
2017-11-14T04:43:08.544Z,4.19
2017-11-14T04:44:08.532Z,4.16
2017-11-14T04:45:08.538Z,4.08
2017-11-14T04:46:09.408Z,4.12
2017-11-14T04:47:08.507Z,4.10
2017-11-14T04:48:08.499Z,4.12
2017-11-14T04:49:08.490Z,4.20
2017-11-14T04:50:08.484Z,4.20
2017-11-14T04:51:08.475Z,4.17
2017-11-14T04:52:08.467Z,4.16
2017-11-14T04:53:08.456Z,4.05
2017-11-14T04:54:08.449Z,4.12
2017-11-14T04:55:08.443Z,4.16
2017-11-14T04:56:08.433Z,4.20
2017-11-14T04:57:08.424Z,4.20
2017-11-14T04:58:08.418Z,4.22
2017-11-14T04:59:08.411Z,4.16
2017-11-14T05:00:08.402Z,4.20
2017-11-14T05:01:08.391Z,4.24
2017-11-14T05:02:08.383Z,4.32
2017-11-14T05:03:08.374Z,4.20
2017-11-14T05:04:08.366Z,4.34
2017-11-14T05:05:08.358Z,4.37
2017-11-14T05:06:08.351Z,4.31
2017-11-14T05:07:08.343Z,4.24
2017-11-14T05:08:08.334Z,4.31
2017-11-14T05:09:08.327Z,4.20
2017-11-14T05:10:08.317Z,4.32
2017-11-14T05:11:08.311Z,4.34
2017-11-14T05:12:08.301Z,4.35
2017-11-14T05:13:08.293Z,4.30
2017-11-14T05:14:08.292Z,4.30
2017-11-14T05:15:08.900Z,4.20
2017-11-14T05:16:08.269Z,4.26
2017-11-14T05:17:08.270Z,4.24
2017-11-14T05:18:08.254Z,4.31
2017-11-14T05:19:08.246Z,4.30
2017-11-14T05:20:08.236Z,4.44
2017-11-14T05:21:08.233Z,4.31
2017-11-14T05:22:08.899Z,4.32
2017-11-14T05:23:08.214Z,4.40
2017-11-14T05:24:08.227Z,4.32
2017-11-14T05:25:08.197Z,4.37
2017-11-14T05:26:08.190Z,4.44
2017-11-14T05:27:08.195Z,4.45
2017-11-14T05:28:08.178Z,4.48
2017-11-14T05:29:08.166Z,4.53
2017-11-14T05:30:08.158Z,4.52
2017-11-14T05:31:08.154Z,4.53
2017-11-14T05:32:08.141Z,4.48
2017-11-14T05:33:08.133Z,4.50
2017-11-14T05:34:08.133Z,4.49
2017-11-14T05:35:08.125Z,4.55
2017-11-14T05:36:08.902Z,4.49
2017-11-14T05:37:08.103Z,4.52
2017-11-14T05:38:08.095Z,4.56
2017-11-14T05:39:08.087Z,4.59
2017-11-14T05:40:08.087Z,4.55
2017-11-14T05:41:08.074Z,4.52
2017-11-14T05:42:08.067Z,4.59
2017-11-14T05:43:08.056Z,4.56
2017-11-14T05:44:08.046Z,4.48
2017-11-14T05:45:08.040Z,4.60
2017-11-14T05:46:08.032Z,4.62
2017-11-14T05:47:08.027Z,4.52
2017-11-14T05:48:08.016Z,4.63
2017-11-14T05:49:08.009Z,4.59
2017-11-14T05:50:08.001Z,4.59
2017-11-14T05:51:07.993Z,4.58
2017-11-14T05:52:07.985Z,4.60
2017-11-14T05:53:07.976Z,4.58
2017-11-14T05:54:07.970Z,4.56
2017-11-14T05:55:09.465Z,4.63
2017-11-14T05:56:09.463Z,4.66
2017-11-14T05:57:07.946Z,4.62
2017-11-14T05:58:07.938Z,4.67
2017-11-14T05:59:07.931Z,4.60
2017-11-14T06:00:07.922Z,4.63
2017-11-14T06:01:07.914Z,4.62
2017-11-14T06:02:08.400Z,4.70
2017-11-14T06:03:07.901Z,4.66
2017-11-14T06:04:07.891Z,4.73
2017-11-14T06:05:07.883Z,4.68
2017-11-14T06:06:07.876Z,4.71
2017-11-14T06:07:07.869Z,4.71
2017-11-14T06:08:08.385Z,4.75
2017-11-14T06:09:07.853Z,4.70
2017-11-14T06:10:07.845Z,4.80
2017-11-14T06:11:07.851Z,4.74
2017-11-14T06:12:07.829Z,4.71
2017-11-14T06:13:10.404Z,4.74
2017-11-14T06:14:07.820Z,4.78
2017-11-14T06:15:07.807Z,4.93
2017-11-14T06:16:07.799Z,4.74
2017-11-14T06:17:07.791Z,4.77
2017-11-14T06:18:07.784Z,4.86
2017-11-14T06:19:07.774Z,4.78
2017-11-14T06:20:07.771Z,4.75
2017-11-14T06:21:07.759Z,4.78
2017-11-14T06:22:07.754Z,4.75
2017-11-14T06:23:07.744Z,4.87
2017-11-14T06:24:07.736Z,4.89
2017-11-14T06:25:07.729Z,4.87
2017-11-14T06:26:07.724Z,4.80
2017-11-14T06:27:07.720Z,4.87
2017-11-14T06:28:07.705Z,4.89
2017-11-14T06:29:07.697Z,4.96
2017-11-14T06:30:07.691Z,5.00
2017-11-14T06:31:07.684Z,4.94
2017-11-14T06:32:07.674Z,4.96
2017-11-14T06:33:07.667Z,5.08
2017-11-14T06:34:07.659Z,5.00
2017-11-14T06:35:07.653Z,5.05
2017-11-14T06:36:07.641Z,5.04
2017-11-14T06:37:07.639Z,5.08
2017-11-14T06:38:07.629Z,5.07
2017-11-14T06:39:07.621Z,5.04
2017-11-14T06:40:07.612Z,5.04
2017-11-14T06:41:07.610Z,5.07
2017-11-14T06:42:07.597Z,5.11
2017-11-14T06:43:07.590Z,5.12
2017-11-14T06:44:07.582Z,5.15
2017-11-14T06:45:07.575Z,5.11
2017-11-14T06:46:07.570Z,5.12
2017-11-14T06:47:09.465Z,5.12
2017-11-14T06:48:07.552Z,5.26
2017-11-14T06:49:07.543Z,5.30
2017-11-14T06:50:07.537Z,5.35
2017-11-14T06:51:07.533Z,5.29
2017-11-14T06:52:07.523Z,5.29
2017-11-14T06:53:07.514Z,5.38
2017-11-14T06:54:07.506Z,5.36
2017-11-14T06:55:07.500Z,5.33
2017-11-14T06:56:07.490Z,5.41
2017-11-14T06:57:07.484Z,5.32
2017-11-14T06:58:07.483Z,5.36
2017-11-14T06:59:07.475Z,5.44
2017-11-14T07:00:07.462Z,5.41
2017-11-14T07:01:07.453Z,5.33
2017-11-14T07:02:07.447Z,5.35
2017-11-14T07:03:07.439Z,5.38
2017-11-14T07:04:07.432Z,5.35
2017-11-14T07:05:07.427Z,5.38
2017-11-14T07:06:07.417Z,5.41
2017-11-14T07:07:07.594Z,5.43
2017-11-14T07:08:07.665Z,5.39
2017-11-14T07:09:08.407Z,5.41
2017-11-14T07:10:07.389Z,5.39
2017-11-14T07:11:07.381Z,5.39
2017-11-14T07:12:07.372Z,5.41
2017-11-14T07:13:08.406Z,5.39
2017-11-14T07:14:07.591Z,5.44
2017-11-14T07:15:07.354Z,5.50
2017-11-14T07:16:07.343Z,5.46
2017-11-14T07:17:07.340Z,5.47
2017-11-14T07:18:07.328Z,5.39
2017-11-14T07:19:07.324Z,5.46
2017-11-14T07:20:07.329Z,5.61
2017-11-14T07:21:07.309Z,5.54
2017-11-14T07:22:07.300Z,5.51
2017-11-14T07:23:09.903Z,5.51
2017-11-14T07:24:07.285Z,5.61
2017-11-14T07:25:07.495Z,5.64
2017-11-14T07:26:07.286Z,5.56
2017-11-14T07:27:07.367Z,5.57
2017-11-14T07:28:07.257Z,5.57
2017-11-14T07:29:07.252Z,5.56
2017-11-14T07:30:07.251Z,5.59
2017-11-14T07:31:07.237Z,5.44
2017-11-14T07:32:07.229Z,5.43
2017-11-14T07:33:07.219Z,5.43
2017-11-14T07:34:07.223Z,5.46
2017-11-14T07:35:07.207Z,5.36
2017-11-14T07:36:07.205Z,5.39
2017-11-14T07:37:07.190Z,5.36
2017-11-14T07:38:07.183Z,5.44
2017-11-14T07:39:07.185Z,5.43
2017-11-14T07:40:07.698Z,5.35
2017-11-14T07:41:07.160Z,5.51
2017-11-14T07:42:07.158Z,5.53
2017-11-14T07:43:07.148Z,5.46
2017-11-14T07:44:07.141Z,5.46
2017-11-14T07:45:07.130Z,5.53
2017-11-14T07:46:07.128Z,5.51
2017-11-14T07:47:07.115Z,5.48
2017-11-14T07:48:07.119Z,5.51
2017-11-14T07:49:07.905Z,5.59
2017-11-14T07:50:07.099Z,5.50
2017-11-14T07:51:07.087Z,5.54
2017-11-14T07:52:07.078Z,5.61
2017-11-14T07:53:07.907Z,5.61
2017-11-14T07:54:07.071Z,5.66
2017-11-14T07:55:07.058Z,5.62
2017-11-14T07:56:07.053Z,5.72
2017-11-14T07:57:07.044Z,5.79
2017-11-14T07:58:07.038Z,5.72
2017-11-14T07:59:07.034Z,5.79
2017-11-14T08:00:07.021Z,5.84
2017-11-14T08:01:07.015Z,5.86
2017-11-14T08:02:07.007Z,5.83
2017-11-14T08:03:07.008Z,5.86
2017-11-14T08:04:06.993Z,5.82
2017-11-14T08:05:06.985Z,5.86
2017-11-14T08:06:06.979Z,5.87
2017-11-14T08:07:06.972Z,5.87
2017-11-14T08:08:06.965Z,5.83
2017-11-14T08:09:06.958Z,5.82
2017-11-14T08:10:06.952Z,5.80
2017-11-14T08:11:06.944Z,5.68
2017-11-14T08:12:07.907Z,5.75
2017-11-14T08:13:06.933Z,5.73
2017-11-14T08:14:06.924Z,5.73
2017-11-14T08:15:06.914Z,5.65
2017-11-14T08:16:06.910Z,5.75
2017-11-14T08:17:06.900Z,5.75
2017-11-14T08:18:06.894Z,5.75
2017-11-14T08:19:06.887Z,5.72
2017-11-14T08:20:06.880Z,5.65
2017-11-14T08:21:06.871Z,5.66
2017-11-14T08:22:06.865Z,5.66
2017-11-14T08:23:06.857Z,5.66
2017-11-14T08:24:06.848Z,5.62
2017-11-14T08:25:06.844Z,5.65
2017-11-14T08:26:06.838Z,5.71
2017-11-14T08:27:06.829Z,5.69
2017-11-14T08:28:06.820Z,5.68
2017-11-14T08:29:06.813Z,5.62
2017-11-14T08:30:06.805Z,5.62
2017-11-14T08:31:06.800Z,5.59
2017-11-14T08:32:06.791Z,5.59
2017-11-14T08:33:06.782Z,5.61
2017-11-14T08:34:06.777Z,5.56
2017-11-14T08:35:06.768Z,5.57
2017-11-14T08:36:06.761Z,5.62
2017-11-14T08:37:06.754Z,5.66
2017-11-14T08:38:06.750Z,5.64
2017-11-14T08:39:06.739Z,5.61
2017-11-14T08:40:07.406Z,5.59
2017-11-14T08:41:06.724Z,5.69
2017-11-14T08:42:06.722Z,5.69
2017-11-14T08:43:06.713Z,5.76
2017-11-14T08:44:06.701Z,5.76
2017-11-14T08:45:06.695Z,5.73
2017-11-14T08:46:06.688Z,5.84
2017-11-14T08:47:06.681Z,5.71
2017-11-14T08:48:06.672Z,5.83
2017-11-14T08:49:06.666Z,5.84
2017-11-14T08:50:06.663Z,5.79
2017-11-14T08:51:06.660Z,5.86
2017-11-14T08:52:06.644Z,5.87
2017-11-14T08:53:06.637Z,5.83
2017-11-14T08:54:06.629Z,5.86
2017-11-14T08:55:06.624Z,5.82
2017-11-14T08:56:06.615Z,5.84
2017-11-14T08:57:06.614Z,5.79
2017-11-14T08:58:06.604Z,5.86
2017-11-14T08:59:06.593Z,5.87
2017-11-14T09:00:06.588Z,5.86
2017-11-14T09:01:06.577Z,5.90
2017-11-14T09:02:06.577Z,5.86
2017-11-14T09:03:06.568Z,5.91
2017-11-14T09:04:06.557Z,5.87
2017-11-14T09:05:06.549Z,5.89
2017-11-14T09:06:06.543Z,5.89
2017-11-14T09:07:06.538Z,5.90
2017-11-14T09:08:06.527Z,5.93
2017-11-14T09:09:06.521Z,5.99
2017-11-14T09:10:06.514Z,5.99
2017-11-14T09:11:06.510Z,5.99
2017-11-14T09:12:06.917Z,6.01
2017-11-14T09:13:06.490Z,5.99
2017-11-14T09:14:06.484Z,6.07
2017-11-14T09:15:06.476Z,5.98
2017-11-14T09:16:06.469Z,5.99
2017-11-14T09:17:06.462Z,6.07
2017-11-14T09:18:06.456Z,6.12
2017-11-14T09:19:06.449Z,6.17
2017-11-14T09:20:06.441Z,6.19
2017-11-14T09:21:06.434Z,6.17
2017-11-14T09:22:06.427Z,6.12
2017-11-14T09:23:06.421Z,6.24
2017-11-14T09:24:06.413Z,6.28
2017-11-14T09:25:06.405Z,6.26
2017-11-14T09:26:06.400Z,6.33
2017-11-14T09:27:06.910Z,6.31
2017-11-14T09:28:06.390Z,6.38
2017-11-14T09:29:06.376Z,6.36
2017-11-14T09:30:06.369Z,6.52
2017-11-14T09:31:06.366Z,6.54
2017-11-14T09:32:06.355Z,6.52
2017-11-14T09:33:06.349Z,6.62
2017-11-14T09:34:06.345Z,6.62
2017-11-14T09:35:06.336Z,6.62
2017-11-14T09:36:06.327Z,6.69
2017-11-14T09:37:06.321Z,6.75
2017-11-14T09:38:06.313Z,6.74
2017-11-14T09:39:06.313Z,6.85
2017-11-14T09:40:06.485Z,6.82
2017-11-14T09:41:06.293Z,6.82
2017-11-14T09:42:06.288Z,6.85
2017-11-14T09:43:06.282Z,6.89
2017-11-14T09:44:06.274Z,6.96
2017-11-14T09:45:06.265Z,6.97
2017-11-14T09:46:06.257Z,7.00
2017-11-14T09:47:06.260Z,7.03
2017-11-14T09:48:06.244Z,7.03
2017-11-14T09:49:06.239Z,7.14
2017-11-14T09:50:06.253Z,7.00
2017-11-14T09:51:06.225Z,7.23
2017-11-14T09:52:06.220Z,7.28
2017-11-14T09:53:06.226Z,7.20
2017-11-14T09:54:06.209Z,7.25
2017-11-14T09:55:06.202Z,7.39
2017-11-14T09:56:06.195Z,7.39
2017-11-14T09:57:06.188Z,7.47
2017-11-14T09:58:06.184Z,7.48
2017-11-14T09:59:06.173Z,7.58
2017-11-14T10:00:06.169Z,7.63
2017-11-14T10:01:06.163Z,7.63
2017-11-14T10:02:06.172Z,7.70
2017-11-14T10:03:06.148Z,7.66
2017-11-14T10:04:06.149Z,7.66
2017-11-14T10:05:06.140Z,7.73
2017-11-14T10:06:06.141Z,7.70
2017-11-14T10:07:06.129Z,7.76
2017-11-14T10:08:06.131Z,7.77
2017-11-14T10:09:06.108Z,7.72
2017-11-14T10:10:06.118Z,7.75
2017-11-14T10:11:06.105Z,7.82
2017-11-14T10:12:06.097Z,7.82
2017-11-14T10:13:06.087Z,7.94
2017-11-14T10:14:06.083Z,7.91
2017-11-14T10:15:06.076Z,8.00
2017-11-14T10:16:06.086Z,8.03
2017-11-14T10:17:06.068Z,8.00
2017-11-14T10:18:06.060Z,8.05
2017-11-14T10:19:06.077Z,8.13
2017-11-14T10:20:06.060Z,8.16
2017-11-14T10:21:06.047Z,8.09
2017-11-14T10:22:06.037Z,8.08
2017-11-14T10:23:06.037Z,8.13
2017-11-14T10:24:06.042Z,8.13
2017-11-14T10:25:06.048Z,8.08
2017-11-14T10:26:06.012Z,8.05
2017-11-14T10:27:06.006Z,8.08
2017-11-14T10:28:06.012Z,8.12
2017-11-14T10:29:06.013Z,8.09
2017-11-14T10:30:05.991Z,8.09
2017-11-14T10:31:05.983Z,8.18
2017-11-14T10:32:05.991Z,8.18
2017-11-14T10:33:05.986Z,8.20
2017-11-14T10:34:05.988Z,8.27
2017-11-14T10:35:05.963Z,8.30
2017-11-14T10:36:05.954Z,8.38
2017-11-14T10:37:05.952Z,8.34
2017-11-14T10:38:05.942Z,8.48
2017-11-14T10:39:05.937Z,8.48
2017-11-14T10:40:05.946Z,8.51
2017-11-14T10:41:07.478Z,8.58
2017-11-14T10:42:07.480Z,8.67
2017-11-14T10:43:05.915Z,8.71
2017-11-14T10:44:06.040Z,8.61
2017-11-14T10:45:05.907Z,8.61
2017-11-14T10:46:05.898Z,8.64
2017-11-14T10:47:05.892Z,8.66
2017-11-14T10:48:05.892Z,8.70
2017-11-14T10:49:05.882Z,8.81
2017-11-14T10:50:05.879Z,8.76
2017-11-14T10:51:05.896Z,8.81
2017-11-14T10:52:05.875Z,8.81
2017-11-14T10:53:05.861Z,8.82
2017-11-14T10:54:07.477Z,8.87
2017-11-14T10:55:05.861Z,8.95
2017-11-14T10:56:05.850Z,8.89
2017-11-14T10:57:05.839Z,8.92
2017-11-14T10:58:05.839Z,9.03
2017-11-14T10:59:06.413Z,9.02
2017-11-14T11:00:05.824Z,9.08
2017-11-14T11:01:05.819Z,9.06
2017-11-14T11:02:07.478Z,9.16
2017-11-14T11:03:05.811Z,9.02
2017-11-14T11:04:05.812Z,9.14
2017-11-14T11:05:05.797Z,9.11
2017-11-14T11:06:05.846Z,9.16
2017-11-14T11:07:05.789Z,9.10
2017-11-14T11:08:05.787Z,9.11
2017-11-14T11:09:05.780Z,9.22
2017-11-14T11:10:05.774Z,9.22
2017-11-14T11:11:05.775Z,9.28
2017-11-14T11:12:05.764Z,9.32
2017-11-14T11:13:05.774Z,9.28
2017-11-14T11:14:05.757Z,9.28
2017-11-14T11:15:06.446Z,9.22
2017-11-14T11:16:05.745Z,9.23
2017-11-14T11:17:05.743Z,9.26
2017-11-14T11:18:05.736Z,9.26
2017-11-14T11:19:05.730Z,9.29
2017-11-14T11:20:05.725Z,9.31
2017-11-14T11:21:05.719Z,9.25
2017-11-14T11:22:05.715Z,9.28
2017-11-14T11:23:05.712Z,9.29
2017-11-14T11:24:05.706Z,9.37
2017-11-14T11:25:05.702Z,9.29
2017-11-14T11:26:05.706Z,9.25
2017-11-14T11:27:05.692Z,9.28
2017-11-14T11:28:05.692Z,9.25
2017-11-14T11:29:05.681Z,9.26
2017-11-14T11:30:05.676Z,9.26
2017-11-14T11:31:05.672Z,9.32
2017-11-14T11:32:05.667Z,9.21
2017-11-14T11:33:05.668Z,9.25
2017-11-14T11:34:05.660Z,9.31
2017-11-14T11:35:05.652Z,9.26
2017-11-14T11:36:06.418Z,9.25
2017-11-14T11:37:05.653Z,9.37
2017-11-14T11:38:05.638Z,9.40
2017-11-14T11:39:05.655Z,9.48
2017-11-14T11:40:05.628Z,9.47
2017-11-14T11:41:05.622Z,9.41
2017-11-14T11:42:05.623Z,9.61
2017-11-14T11:43:05.623Z,9.59
2017-11-14T11:44:05.610Z,9.61
2017-11-14T11:45:05.604Z,9.61
2017-11-14T11:46:05.601Z,9.74
2017-11-14T11:47:05.596Z,9.64
2017-11-14T11:48:05.597Z,9.56
2017-11-14T11:49:05.588Z,9.64
2017-11-14T11:50:05.593Z,9.62
2017-11-14T11:51:05.579Z,9.64
2017-11-14T11:52:05.574Z,9.61
2017-11-14T11:53:05.569Z,9.61
2017-11-14T11:54:05.563Z,9.55
2017-11-14T11:55:05.562Z,9.59
2017-11-14T11:56:05.556Z,9.55
2017-11-14T11:57:05.551Z,9.59
2017-11-14T11:58:05.565Z,9.54
2017-11-14T11:59:05.542Z,9.66
2017-11-14T12:00:05.537Z,9.58
2017-11-14T12:01:05.536Z,9.61
2017-11-14T12:02:05.528Z,9.58
2017-11-14T12:03:05.524Z,9.56
2017-11-14T12:04:05.526Z,9.61
2017-11-14T12:05:05.515Z,9.68
2017-11-14T12:06:05.508Z,9.59
2017-11-14T12:07:05.505Z,9.65
2017-11-14T12:08:05.500Z,9.58
2017-11-14T12:09:05.497Z,9.56
2017-11-14T12:10:05.494Z,9.64
2017-11-14T12:11:05.488Z,9.64
2017-11-14T12:12:05.483Z,9.66
2017-11-14T12:13:05.480Z,9.66
2017-11-14T12:14:05.475Z,9.66
2017-11-14T12:15:05.470Z,9.73
2017-11-14T12:16:05.465Z,9.69
2017-11-14T12:17:05.461Z,9.79
2017-11-14T12:18:05.468Z,9.80
2017-11-14T12:19:05.479Z,9.80
2017-11-14T12:20:05.446Z,9.91
2017-11-14T12:21:05.453Z,9.92
2017-11-14T12:22:05.464Z,9.89
2017-11-14T12:23:05.441Z,9.89
2017-11-14T12:24:05.440Z,9.83
2017-11-14T12:25:05.430Z,9.77
2017-11-14T12:26:05.421Z,9.82
2017-11-14T12:27:05.420Z,9.80
2017-11-14T12:28:05.924Z,9.86
2017-11-14T12:29:05.408Z,9.84
2017-11-14T12:30:05.414Z,9.82
2017-11-14T12:31:05.400Z,9.86
2017-11-14T12:32:05.395Z,9.69
2017-11-14T12:33:05.392Z,9.72
2017-11-14T12:34:05.386Z,9.87
2017-11-14T12:35:05.382Z,9.82
2017-11-14T12:36:05.378Z,9.83
2017-11-14T12:37:05.373Z,9.82
2017-11-14T12:38:05.371Z,9.80
2017-11-14T12:39:05.364Z,9.82
2017-11-14T12:40:05.362Z,9.86
2017-11-14T12:41:05.354Z,9.95
2017-11-14T12:42:05.364Z,9.98
2017-11-14T12:43:05.347Z,9.99
2017-11-14T12:44:05.340Z,9.99
2017-11-14T12:45:05.340Z,10.04
2017-11-14T12:46:05.334Z,9.98
2017-11-14T12:47:05.609Z,10.01
2017-11-14T12:48:05.330Z,9.98
2017-11-14T12:49:05.319Z,9.97
2017-11-14T12:50:05.323Z,9.94
2017-11-14T12:51:05.319Z,9.92
2017-11-14T12:52:05.315Z,9.86
2017-11-14T12:53:05.305Z,9.89
2017-11-14T12:54:05.300Z,9.91
2017-11-14T12:55:05.295Z,9.87
2017-11-14T12:56:05.305Z,9.84
2017-11-14T12:57:05.287Z,9.86
2017-11-14T12:58:05.296Z,9.83
2017-11-14T12:59:05.277Z,9.86
2017-11-14T13:00:05.272Z,9.84
2017-11-14T13:01:05.267Z,9.87
2017-11-14T13:02:05.266Z,9.83
2017-11-14T13:03:05.286Z,9.83
2017-11-14T13:04:06.997Z,9.82
2017-11-14T13:05:06.993Z,9.73
2017-11-14T13:06:05.246Z,9.69
2017-11-14T13:07:05.242Z,9.66
2017-11-14T13:08:05.236Z,9.68
2017-11-14T13:09:05.246Z,9.69
2017-11-14T13:10:05.228Z,9.74
2017-11-14T13:11:05.536Z,9.74
2017-11-14T13:12:08.073Z,9.72
2017-11-14T13:13:27.109Z,9.77
2017-11-14T13:14:05.538Z,9.72
2017-11-14T13:15:05.581Z,9.76
2017-11-14T13:16:05.200Z,9.79
2017-11-14T13:17:05.196Z,9.82
2017-11-14T13:18:06.045Z,9.82
2017-11-14T13:19:05.195Z,9.77
2017-11-14T13:20:05.181Z,9.83
2017-11-14T13:21:05.209Z,9.79
2017-11-14T13:22:05.175Z,9.82
2017-11-14T13:23:05.170Z,9.82
2017-11-14T13:24:05.178Z,9.80
2017-11-14T13:25:05.160Z,9.82
2017-11-14T13:26:05.160Z,9.87
2017-11-14T13:27:05.152Z,9.80
2017-11-14T13:28:05.146Z,9.79
2017-11-14T13:29:05.140Z,9.84
2017-11-14T13:30:05.153Z,9.82
2017-11-14T13:31:05.131Z,9.77
2017-11-14T13:32:05.129Z,9.79
2017-11-14T13:33:05.123Z,9.68
2017-11-14T13:34:05.119Z,9.73
2017-11-14T13:35:05.115Z,9.68
2017-11-14T13:36:05.109Z,9.77
2017-11-14T13:37:05.106Z,9.79
2017-11-14T13:38:05.114Z,9.79
2017-11-14T13:39:05.098Z,9.83
2017-11-14T13:40:05.093Z,9.82
2017-11-14T13:41:05.096Z,9.80
2017-11-14T13:42:05.937Z,9.83
2017-11-14T13:43:05.085Z,9.73
2017-11-14T13:44:05.591Z,9.74
2017-11-14T13:45:05.123Z,9.69
2017-11-14T13:46:05.064Z,9.68
2017-11-14T13:47:05.935Z,9.56
2017-11-14T13:48:05.059Z,9.64
2017-11-14T13:49:05.052Z,9.56
2017-11-14T13:50:05.046Z,9.65
2017-11-14T13:51:05.042Z,9.58
2017-11-14T13:52:05.036Z,9.43
2017-11-14T13:53:05.038Z,9.44
2017-11-14T13:54:05.030Z,9.48
2017-11-14T13:55:05.936Z,9.46
2017-11-14T13:56:05.018Z,9.47
2017-11-14T13:57:05.012Z,9.47
2017-11-14T13:58:05.008Z,9.43
2017-11-14T13:59:05.004Z,9.46
2017-11-14T14:00:05.001Z,9.46